Virtual Futura



 METAR AND TAF INFORMATION
METAR FOR EGAE
ADDS - METARS form results

(1046 UTC 18 October 2019)
Data provider http://aviationweather.gov/metar/data/
 
METAR text: EGAE 181020Z 03004KT 9999 FEW018 10/07 Q0993
Conditions at: EGAE (EGLINTON/LONDOND, GB) observed 1020 UTC 18 October 2019
Temperature: 10.0°C (50°F)
Dewpoint: 7.0°C (45°F) [RH = 82%]
Pressure (altimeter): 29.32 inches Hg (993.0 mb)
Winds: from the NNE (30 degrees) at 5 MPH (4 knots; 2.1 m/s)
Visibility: 6 or more miles (10+ km)
Ceiling: at least 12,000 feet AGL
Clouds: few clouds at 1800 feet AGL
Weather: no significant weather observed at this time

METAR text: EGAE 180950Z 06006KT 9999 FEW018 10/07 Q0993
Conditions at: EGAE (EGLINTON/LONDOND, GB) observed 0950 UTC 18 October 2019
Temperature: 10.0°C (50°F)
Dewpoint: 7.0°C (45°F) [RH = 82%]
Pressure (altimeter): 29.32 inches Hg (993.0 mb)
Winds: from the ENE (60 degrees) at 7 MPH (6 knots; 3.1 m/s)
Visibility: 6 or more miles (10+ km)
Ceiling: at least 12,000 feet AGL
Clouds: few clouds at 1800 feet AGL
Weather: no significant weather observed at this time

Forecast for: EGAE (EGLINTON/LONDOND, GB)
Text: TAF EGAE 180801Z 1809/1818 04008KT 9999 FEW020 SCT040
Forecast period: 0900 to 1800 UTC 18 October 2019
Forecast type: FROM: standard forecast or significant change
Winds: from the NE (40 degrees) at 9 MPH (8 knots; 4.1 m/s)
Visibility: 6 or more miles 10+ km)
Ceiling: at least 12,000 feet AGL
Clouds: few clouds at 2000 feet AGL
scattered clouds at 4000 feet AGL
Weather: no significant weather forecast for this period
Text: PROB40
Forecast period: 1500 to 1800 UTC 18 October 2019
Forecast type: TEMPORARY: The following changes expected for less than half the time period
Visibility: 4 miles (6 km)
Ceiling: unknown
Clouds: missing
Weather: SHRA  (rain showers)

 AIRPORT MAP

 RUNWAY INFORMATION
Runway 02 Runway length 3955 ft Runway width 148 ft
Runway elevation 19 ft Runway displaced threshold 435 ft Runway heading 17
Runway 20 Runway length 3955 ft Runway width 148 ft
Runway elevation 5 ft Runway displaced threshold 0 ft Runway heading 197
Runway 08 Runway length 6076 ft Runway width 147 ft
Runway elevation 17 ft Runway displaced threshold 433 ft Runway heading 73
Runway 26 Runway length 6076 ft Runway width 147 ft
Runway elevation 10 ft Runway displaced threshold 0 ft Runway heading 253

 AIRPORT FREQUENCIES
Type APP Name APP Frequency 123.625 MHZ
Type TWR Name TWR Frequency 134.15 MHZ

 AIRPORT NEAR NAVIGATION AIDS

Poltica de Cookies

Esta web utiliza cookies para obtener datos estadsticos de la navegacin de sus usuarios. Si continas navegando consideramos que aceptas su uso. Ms informacin X Cerrar